AMC SCVI-SAZY
Flight info
| Callsign | AMC |
|---|---|
| Flight time | 0h 47m |
| Altitude | 5500 |
| Route | DCT |
| Aircraft | BE36/L-VGD/A |
Departure
| Time | 2026-04-25 00:17 |
|---|---|
| Airport | Villarrica Airport (SCVI) |
Arrival
| Time | 2026-04-25 01:05 |
|---|---|
| Airport | Aviador C. Campos Airport (SAZY) |
| Time | Latitude | Longitude | Altitude | Speed | Heading |
|---|---|---|---|---|---|
| 2026-04-25 00:04 | -39.31219 | -72.23082 | 952 ft | 0 kts | 108° |
| 2026-04-25 00:16 | -39.31217 | -72.23067 | 956 ft | 5 kts | 77° |
| 2026-04-25 00:16 | -39.31219 | -72.23051 | 956 ft | 5 kts | 133° |
| 2026-04-25 00:16 | -39.31253 | -72.23067 | 956 ft | 1 kts | 274° |
| 2026-04-25 00:16 | -39.31263 | -72.23080 | 954 ft | 4 kts | 173° |
| 2026-04-25 00:17 | -39.31427 | -72.22990 | 957 ft | 62 kts | 156° |
| 2026-04-25 00:17 | -39.32005 | -72.22686 | 1019 ft | 111 kts | 157° |
| 2026-04-25 00:17 | -39.32694 | -72.22305 | 1526 ft | 102 kts | 158° |
| 2026-04-25 00:17 | -39.33275 | -72.21686 | 1861 ft | 118 kts | 140° |
| 2026-04-25 00:18 | -39.33795 | -72.20843 | 2244 ft | 123 kts | 112° |
| 2026-04-25 00:18 | -39.33530 | -72.19831 | 2478 ft | 139 kts | 28° |
| 2026-04-25 00:18 | -39.32592 | -72.19995 | 2517 ft | 150 kts | 326° |
| 2026-04-25 00:18 | -39.31740 | -72.20818 | 2522 ft | 162 kts | 318° |
| 2026-04-25 00:19 | -39.30839 | -72.21759 | 2503 ft | 167 kts | 315° |
| 2026-04-25 00:19 | -39.30368 | -72.23020 | 2639 ft | 156 kts | 268° |
| 2026-04-25 00:19 | -39.30816 | -72.24285 | 2503 ft | 166 kts | 219° |
| 2026-04-25 00:19 | -39.31912 | -72.24541 | 2515 ft | 169 kts | 164° |
| 2026-04-25 00:20 | -39.32880 | -72.23883 | 2995 ft | 147 kts | 148° |
| 2026-04-25 00:20 | -39.33654 | -72.22968 | 3090 ft | 161 kts | 132° |
| 2026-04-25 00:20 | -39.34104 | -72.21637 | 3251 ft | 163 kts | 91° |
| 2026-04-25 00:20 | -39.33510 | -72.20377 | 3019 ft | 183 kts | 27° |
| 2026-04-25 00:21 | -39.32329 | -72.20410 | 3029 ft | 171 kts | 323° |
| 2026-04-25 00:21 | -39.32045 | -72.21591 | 3459 ft | 140 kts | 235° |
| 2026-04-25 00:21 | -39.32935 | -72.21549 | 3324 ft | 169 kts | 121° |
| 2026-04-25 00:21 | -39.32510 | -72.20313 | 3418 ft | 169 kts | 32° |
| 2026-04-25 00:22 | -39.31458 | -72.19727 | 3585 ft | 162 kts | 355° |
| 2026-04-25 00:22 | -39.30951 | -72.20750 | 3417 ft | 162 kts | 248° |
| 2026-04-25 00:22 | -39.31840 | -72.21382 | 3458 ft | 157 kts | 176° |
| 2026-04-25 00:22 | -39.32830 | -72.21184 | 3579 ft | 140 kts | 173° |
| 2026-04-25 00:23 | -39.33773 | -72.20991 | 3489 ft | 134 kts | 175° |
| 2026-04-25 00:23 | -39.34658 | -72.20848 | 3604 ft | 110 kts | 176° |
| 2026-04-25 00:23 | -39.35399 | -72.20727 | 3659 ft | 108 kts | 176° |
| 2026-04-25 00:23 | -39.36126 | -72.20590 | 3833 ft | 107 kts | 174° |
| 2026-04-25 00:24 | -39.36812 | -72.20455 | 4110 ft | 98 kts | 180° |
| 2026-04-25 00:24 | -39.37547 | -72.20405 | 4250 ft | 106 kts | 182° |
| 2026-04-25 00:24 | -39.38291 | -72.20368 | 4504 ft | 112 kts | 184° |
| 2026-04-25 00:24 | -39.39056 | -72.20350 | 4789 ft | 108 kts | 185° |
| 2026-04-25 00:25 | -39.39800 | -72.20338 | 5085 ft | 108 kts | 178° |
| 2026-04-25 00:25 | -39.40545 | -72.20107 | 5301 ft | 117 kts | 170° |
| 2026-04-25 00:25 | -39.41367 | -72.19815 | 5498 ft | 125 kts | 169° |
| 2026-04-25 00:25 | -39.42275 | -72.19458 | 5469 ft | 143 kts | 166° |
| 2026-04-25 00:26 | -39.43092 | -72.18918 | 5880 ft | 125 kts | 145° |
| 2026-04-25 00:26 | -39.43695 | -72.18114 | 6166 ft | 123 kts | 133° |
| 2026-04-25 00:26 | -39.44231 | -72.17260 | 6428 ft | 121 kts | 132° |
| 2026-04-25 00:26 | -39.44778 | -72.16442 | 6668 ft | 120 kts | 135° |
| 2026-04-25 00:27 | -39.45339 | -72.15652 | 6902 ft | 118 kts | 139° |
| 2026-04-25 00:27 | -39.45906 | -72.14903 | 7163 ft | 117 kts | 139° |
| 2026-04-25 00:27 | -39.46485 | -72.14145 | 7386 ft | 119 kts | 142° |
| 2026-04-25 00:27 | -39.47083 | -72.13458 | 7660 ft | 114 kts | 147° |
| 2026-04-25 00:28 | -39.47753 | -72.12764 | 7716 ft | 133 kts | 150° |
| 2026-04-25 00:28 | -39.48544 | -72.12117 | 7787 ft | 144 kts | 151° |
| 2026-04-25 00:28 | -39.49241 | -72.11136 | 7955 ft | 145 kts | 133° |
| 2026-04-25 00:28 | -39.49956 | -72.09985 | 7560 ft | 175 kts | 140° |
| 2026-04-25 00:29 | -39.50751 | -72.08798 | 7599 ft | 172 kts | 125° |
| 2026-04-25 00:29 | -39.51318 | -72.07445 | 7594 ft | 175 kts | 122° |
| 2026-04-25 00:29 | -39.51956 | -72.06069 | 7519 ft | 175 kts | 130° |
| 2026-04-25 00:29 | -39.52788 | -72.04955 | 7501 ft | 174 kts | 143° |
| 2026-04-25 00:30 | -39.53735 | -72.03984 | 7433 ft | 174 kts | 148° |
| 2026-04-25 00:30 | -39.54733 | -72.03114 | 7344 ft | 171 kts | 152° |
| 2026-04-25 00:30 | -39.55730 | -72.02342 | 7380 ft | 160 kts | 156° |
| 2026-04-25 00:30 | -39.56711 | -72.01710 | 7384 ft | 155 kts | 163° |
| 2026-04-25 00:31 | -39.57716 | -72.01238 | 7387 ft | 151 kts | 167° |
| 2026-04-25 00:31 | -39.58707 | -72.00808 | 7391 ft | 151 kts | 166° |
| 2026-04-25 00:31 | -39.59699 | -72.00387 | 7358 ft | 151 kts | 168° |
| 2026-04-25 00:31 | -39.60707 | -72.00033 | 7379 ft | 145 kts | 171° |
| 2026-04-25 00:32 | -39.61685 | -71.99700 | 7340 ft | 144 kts | 168° |
| 2026-04-25 00:32 | -39.62656 | -71.99347 | 7290 ft | 145 kts | 166° |
| 2026-04-25 00:32 | -39.63575 | -71.98832 | 7251 ft | 146 kts | 156° |
| 2026-04-25 00:32 | -39.64355 | -71.98173 | 7389 ft | 130 kts | 143° |
| 2026-04-25 00:33 | -39.64930 | -71.97228 | 7409 ft | 133 kts | 124° |
| 2026-04-25 00:33 | -39.65338 | -71.96177 | 7379 ft | 132 kts | 120° |
| 2026-04-25 00:33 | -39.65853 | -71.95156 | 7271 ft | 134 kts | 137° |
| 2026-04-25 00:33 | -39.66623 | -71.94513 | 7108 ft | 133 kts | 175° |
| 2026-04-25 00:34 | -39.67507 | -71.94341 | 7169 ft | 123 kts | 178° |
| 2026-04-25 00:34 | -39.68338 | -71.94123 | 7154 ft | 126 kts | 161° |
| 2026-04-25 00:34 | -39.69059 | -71.93375 | 7105 ft | 132 kts | 142° |
| 2026-04-25 00:34 | -39.69807 | -71.92755 | 7170 ft | 125 kts | 159° |
| 2026-04-25 00:35 | -39.70601 | -71.92235 | 7249 ft | 130 kts | 158° |
| 2026-04-25 00:35 | -39.71414 | -71.91662 | 7350 ft | 139 kts | 156° |
| 2026-04-25 00:35 | -39.72298 | -71.91000 | 7308 ft | 154 kts | 157° |
| 2026-04-25 00:35 | -39.73265 | -71.90285 | 7185 ft | 165 kts | 155° |
| 2026-04-25 00:36 | -39.74289 | -71.89509 | 7064 ft | 176 kts | 154° |
| 2026-04-25 00:36 | -39.75378 | -71.88706 | 6994 ft | 181 kts | 155° |
| 2026-04-25 00:36 | -39.76522 | -71.87958 | 6794 ft | 190 kts | 157° |
| 2026-04-25 00:36 | -39.77683 | -71.87194 | 6634 ft | 185 kts | 160° |
| 2026-04-25 00:37 | -39.78852 | -71.86668 | 6449 ft | 172 kts | 169° |
| 2026-04-25 00:37 | -39.79986 | -71.86503 | 6314 ft | 157 kts | 182° |
| 2026-04-25 00:37 | -39.81030 | -71.86535 | 6118 ft | 146 kts | 190° |
| 2026-04-25 00:37 | -39.82040 | -71.86657 | 5832 ft | 146 kts | 191° |
| 2026-04-25 00:38 | -39.83056 | -71.86824 | 5589 ft | 148 kts | 192° |
| 2026-04-25 00:38 | -39.84071 | -71.86947 | 5548 ft | 147 kts | 186° |
| 2026-04-25 00:38 | -39.85115 | -71.86918 | 5417 ft | 155 kts | 183° |
| 2026-04-25 00:38 | -39.86141 | -71.86429 | 5185 ft | 167 kts | 140° |
| 2026-04-25 00:39 | -39.87007 | -71.85399 | 4856 ft | 165 kts | 143° |
| 2026-04-25 00:39 | -39.87819 | -71.84271 | 4249 ft | 177 kts | 137° |
| 2026-04-25 00:39 | -39.88661 | -71.83153 | 3940 ft | 163 kts | 140° |
| 2026-04-25 00:39 | -39.89446 | -71.82244 | 4015 ft | 139 kts | 144° |
| 2026-04-25 00:40 | -39.90149 | -71.81539 | 3950 ft | 124 kts | 141° |
| 2026-04-25 00:40 | -39.90768 | -71.80784 | 3790 ft | 121 kts | 141° |
| 2026-04-25 00:40 | -39.91307 | -71.80015 | 3906 ft | 114 kts | 130° |
| 2026-04-25 00:40 | -39.91774 | -71.79142 | 3958 ft | 120 kts | 124° |
| 2026-04-25 00:41 | -39.92237 | -71.78194 | 3997 ft | 130 kts | 128° |
| 2026-04-25 00:41 | -39.92852 | -71.77259 | 3995 ft | 141 kts | 136° |
| 2026-04-25 00:41 | -39.93588 | -71.76444 | 4011 ft | 145 kts | 146° |
| 2026-04-25 00:41 | -39.94521 | -71.75818 | 3912 ft | 150 kts | 157° |
| 2026-04-25 00:42 | -39.95495 | -71.75315 | 3924 ft | 149 kts | 164° |
| 2026-04-25 00:42 | -39.96499 | -71.75048 | 3935 ft | 144 kts | 170° |
| 2026-04-25 00:42 | -39.97440 | -71.74653 | 3937 ft | 141 kts | 163° |
| 2026-04-25 00:42 | -39.98350 | -71.74257 | 3953 ft | 140 kts | 164° |
| 2026-04-25 00:43 | -39.99320 | -71.73912 | 3840 ft | 143 kts | 175° |
| 2026-04-25 00:43 | -40.00259 | -71.73950 | 3880 ft | 128 kts | 185° |
| 2026-04-25 00:43 | -40.01145 | -71.73828 | 3759 ft | 119 kts | 175° |
| 2026-04-25 00:43 | -40.01914 | -71.73680 | 3628 ft | 113 kts | 173° |
| 2026-04-25 00:44 | -40.02698 | -71.73516 | 3472 ft | 109 kts | 175° |
| 2026-04-25 00:44 | -40.03410 | -71.73380 | 3322 ft | 91 kts | 175° |
| 2026-04-25 00:44 | -40.04025 | -71.73137 | 3126 ft | 97 kts | 135° |
| 2026-04-25 00:44 | -40.03935 | -71.72383 | 2755 ft | 92 kts | 15° |
| 2026-04-25 00:45 | -40.03271 | -71.72266 | 2218 ft | 99 kts | 22° |
| 2026-04-25 00:45 | -40.02671 | -71.72071 | 2139 ft | 81 kts | 8° |
| 2026-04-25 00:45 | -40.02089 | -71.72163 | 2333 ft | 87 kts | 335° |
| 2026-04-25 00:45 | -40.01688 | -71.72692 | 2601 ft | 87 kts | 285° |
| 2026-04-25 00:46 | -40.01932 | -71.73382 | 2839 ft | 101 kts | 198° |
| 2026-04-25 00:46 | -40.02504 | -71.72917 | 3078 ft | 114 kts | 112° |
| 2026-04-25 00:46 | -40.01368 | -71.72499 | 3117 ft | 132 kts | 308° |
| 2026-04-25 00:47 | -40.01460 | -71.73502 | 3278 ft | 132 kts | 214° |
| 2026-04-25 00:47 | -40.02394 | -71.73620 | 3320 ft | 137 kts | 176° |
| 2026-04-25 00:47 | -40.03327 | -71.73359 | 3204 ft | 135 kts | 168° |
| 2026-04-25 00:47 | -40.03662 | -71.72521 | 2894 ft | 132 kts | 44° |
| 2026-04-25 00:48 | -40.02766 | -71.71929 | 2329 ft | 156 kts | 11° |
| 2026-04-25 00:48 | -40.01812 | -71.72192 | 2456 ft | 133 kts | 309° |
| 2026-04-25 00:48 | -40.02030 | -71.73043 | 2511 ft | 128 kts | 183° |
| 2026-04-25 00:48 | -40.02515 | -71.72328 | 2689 ft | 117 kts | 66° |
| 2026-04-25 00:49 | -40.01929 | -71.72368 | 2666 ft | 104 kts | 294° |
| 2026-04-25 00:49 | -40.02252 | -71.72913 | 2752 ft | 110 kts | 166° |
| 2026-04-25 00:49 | -40.02909 | -71.72622 | 3076 ft | 96 kts | 165° |
| 2026-04-25 00:49 | -40.03631 | -71.72297 | 3056 ft | 120 kts | 165° |
| 2026-04-25 00:50 | -40.04472 | -71.71930 | 3080 ft | 133 kts | 165° |
| 2026-04-25 00:50 | -40.05384 | -71.71583 | 3151 ft | 141 kts | 167° |
| 2026-04-25 00:50 | -40.06366 | -71.71204 | 3250 ft | 154 kts | 163° |
| 2026-04-25 00:50 | -40.07396 | -71.70671 | 3360 ft | 164 kts | 159° |
| 2026-04-25 00:51 | -40.08092 | -71.70216 | 3316 ft | 174 kts | 150° |
| 2026-04-25 00:51 | -40.09389 | -71.69134 | 3622 ft | 164 kts | 139° |
| 2026-04-25 00:51 | -40.10163 | -71.68009 | 3625 ft | 172 kts | 133° |
| 2026-04-25 00:51 | -40.10703 | -71.67217 | 3705 ft | 170 kts | 136° |
| 2026-04-25 00:52 | -40.11530 | -71.66135 | 3821 ft | 170 kts | 136° |
| 2026-04-25 00:52 | -40.12341 | -71.65024 | 3894 ft | 165 kts | 136° |
| 2026-04-25 00:52 | -40.13060 | -71.63968 | 3960 ft | 143 kts | 132° |
| 2026-04-25 00:52 | -40.13635 | -71.63022 | 4011 ft | 126 kts | 126° |
| 2026-04-25 00:53 | -40.14010 | -71.61999 | 3976 ft | 124 kts | 115° |
| 2026-04-25 00:53 | -40.14422 | -71.61007 | 4068 ft | 129 kts | 117° |
| 2026-04-25 00:53 | -40.14822 | -71.59898 | 4145 ft | 138 kts | 114° |
| 2026-04-25 00:53 | -40.15172 | -71.58665 | 4140 ft | 149 kts | 108° |
| 2026-04-25 00:54 | -40.15423 | -71.57365 | 4183 ft | 149 kts | 99° |
| 2026-04-25 00:54 | -40.15527 | -71.55981 | 4121 ft | 155 kts | 94° |
| 2026-04-25 00:54 | -40.15554 | -71.54578 | 4080 ft | 153 kts | 89° |
| 2026-04-25 00:54 | -40.15563 | -71.53236 | 4097 ft | 143 kts | 92° |
| 2026-04-25 00:55 | -40.15595 | -71.51959 | 4088 ft | 140 kts | 91° |
| 2026-04-25 00:55 | -40.15496 | -71.50180 | 3896 ft | 149 kts | 82° |
| 2026-04-25 00:55 | -40.15395 | -71.49310 | 3918 ft | 146 kts | 82° |
| 2026-04-25 00:55 | -40.15295 | -71.47985 | 3872 ft | 143 kts | 87° |
| 2026-04-25 00:56 | -40.15263 | -71.46702 | 3934 ft | 139 kts | 85° |
| 2026-04-25 00:56 | -40.15095 | -71.45456 | 3987 ft | 137 kts | 90° |
| 2026-04-25 00:56 | -40.15272 | -71.44219 | 3944 ft | 142 kts | 107° |
| 2026-04-25 00:56 | -40.15552 | -71.42969 | 3881 ft | 143 kts | 106° |
| 2026-04-25 00:57 | -40.15781 | -71.41729 | 3869 ft | 142 kts | 104° |
| 2026-04-25 00:57 | -40.15973 | -71.40475 | 3948 ft | 138 kts | 103° |
| 2026-04-25 00:57 | -40.16110 | -71.39257 | 4102 ft | 132 kts | 97° |
| 2026-04-25 00:57 | -40.16252 | -71.38054 | 4237 ft | 135 kts | 101° |
| 2026-04-25 00:58 | -40.16298 | -71.36827 | 4351 ft | 134 kts | 83° |
| 2026-04-25 00:58 | -40.15903 | -71.35675 | 4245 ft | 144 kts | 51° |
| 2026-04-25 00:58 | -40.15326 | -71.34617 | 4351 ft | 145 kts | 54° |
| 2026-04-25 00:58 | -40.14769 | -71.33496 | 4391 ft | 152 kts | 55° |
| 2026-04-25 00:59 | -40.14173 | -71.32293 | 4363 ft | 162 kts | 57° |
| 2026-04-25 00:59 | -40.13654 | -71.30957 | 4350 ft | 167 kts | 64° |
| 2026-04-25 00:59 | -40.13155 | -71.29578 | 4353 ft | 169 kts | 63° |
| 2026-04-25 00:59 | -40.12690 | -71.28192 | 4346 ft | 166 kts | 65° |
| 2026-04-25 01:00 | -40.12340 | -71.26823 | 4433 ft | 153 kts | 71° |
| 2026-04-25 01:00 | -40.11929 | -71.25541 | 4305 ft | 153 kts | 62° |
| 2026-04-25 01:00 | -40.11476 | -71.24265 | 4110 ft | 157 kts | 64° |
| 2026-04-25 01:00 | -40.11037 | -71.22956 | 3939 ft | 156 kts | 68° |
| 2026-04-25 01:01 | -40.10666 | -71.21633 | 3845 ft | 152 kts | 71° |
| 2026-04-25 01:01 | -40.10352 | -71.20323 | 3721 ft | 150 kts | 70° |
| 2026-04-25 01:01 | -40.10016 | -71.19049 | 3523 ft | 150 kts | 66° |
| 2026-04-25 01:01 | -40.09548 | -71.17854 | 3358 ft | 150 kts | 53° |
| 2026-04-25 01:02 | -40.08850 | -71.16728 | 3059 ft | 176 kts | 41° |
| 2026-04-25 01:02 | -40.08025 | -71.15430 | 2735 ft | 196 kts | 65° |
| 2026-04-25 01:02 | -40.07519 | -71.13766 | 2627 ft | 196 kts | 68° |
| 2026-04-25 01:02 | -40.07042 | -71.12121 | 2699 ft | 185 kts | 70° |
| 2026-04-25 01:03 | -40.06643 | -71.10687 | 3229 ft | 157 kts | 73° |
| 2026-04-25 01:03 | -40.06486 | -71.09362 | 3595 ft | 147 kts | 83° |
| 2026-04-25 01:03 | -40.06019 | -71.08302 | 3903 ft | 134 kts | 19° |
| 2026-04-25 01:03 | -40.05353 | -71.08779 | 3644 ft | 138 kts | 267° |
| 2026-04-25 01:04 | -40.05966 | -71.09705 | 3296 ft | 129 kts | 225° |
| 2026-04-25 01:04 | -40.06506 | -71.10545 | 3041 ft | 113 kts | 240° |
| 2026-04-25 01:04 | -40.06785 | -71.11318 | 2768 ft | 84 kts | 248° |
| 2026-04-25 01:04 | -40.06987 | -71.11976 | 2616 ft | 73 kts | 248° |
| 2026-04-25 01:05 | -40.07167 | -71.12568 | 2567 ft | 68 kts | 248° |
| 2026-04-25 01:05 | -40.07322 | -71.13060 | 2559 ft | 45 kts | 249° |
| 2026-04-25 01:05 | -40.07422 | -71.13403 | 2564 ft | 42 kts | 248° |
| 2026-04-25 01:05 | -40.07533 | -71.13733 | 2569 ft | 35 kts | 234° |
| 2026-04-25 01:06 | -40.07683 | -71.13907 | 2573 ft | 19 kts | 213° |
| 2026-04-25 01:06 | -40.07777 | -71.13972 | 2571 ft | 11 kts | 178° |
| 2026-04-25 01:06 | -40.07812 | -71.13953 | 2574 ft | 3 kts | 70° |
| 2026-04-25 01:06 | -40.07788 | -71.13940 | 2574 ft | 5 kts | 5° |
| 2026-04-25 01:07 | -40.07775 | -71.13949 | 2574 ft | 0 kts | 303° |
| 2026-04-25 01:08 | -40.07772 | -71.13954 | 2574 ft | 0 kts | 303° |